Flight Track Log - Related Links

Times and Time Zones

All times are in EDT time to prevent confusion due to time zone crossing. See the SWA2612 flight status page for this flight to view local times or setup timezone preferences in your user account.

Time Position Orientation Groundspeed Altitude Reporting Facility
EDT Latitude Longitude Course Direction KTS MPH feet Rate Location/Type
Mon 11:18:12 PM 34.0167 -117.6000 153° Southeast 225 259 5,400  Level Southern California TRACON
Mon 11:19:12 PM 33.9500 -117.5500 148° Southeast 284 327 8,300 1,800 Climbing Southern California TRACON
Mon 11:20:12 PM 33.8833 -117.5000 148° Southeast 295 339 9,000 791 Climbing Southern California TRACON
Mon 11:20:43 PM 33.8503 -117.4733 146° Southeast 297 342 9,500 2,217 Climbing Los Angeles Center
Mon 11:21:44 PM 33.7786 -117.4119 145° Southeast 314 361 12,400 3,073 Climbing Los Angeles Center
Mon 11:22:46 PM 33.7264 -117.3086 121° Southeast 385 443 15,800 3,484 Climbing Los Angeles Center
Mon 11:23:00 PM 33.7202 -117.3696 145° Southeast  Level FlightAware Approximate
Mon 11:23:48 PM 33.7144 -117.1750 96° East 402 463 19,600  Level Los Angeles Center
Mon 11:24:50 PM 33.7031 -117.0367 96° East 415 478 22,800 2,488 Climbing Los Angeles Center
Mon 11:25:51 PM 33.6894 -116.8667 95° East 429 494 24,700 2,146 Climbing Los Angeles Center
Mon 11:26:53 PM 33.6775 -116.7294 96° East 435 501 27,200 2,081 Climbing Los Angeles Center
Mon 11:27:55 PM 33.6653 -116.5814 96° East 444 511 29,000 1,355 Climbing Los Angeles Center
Mon 11:28:57 PM 33.6522 -116.4311 96° East 450 518 30,000 968 Climbing Los Angeles Center
Mon 11:29:59 PM 33.6383 -116.2828 96° East 447 514 31,000 1,268 Climbing Los Angeles Center
Mon 11:31:00 PM 33.6261 -116.1036 95° East 446 513 32,600 976 Climbing Los Angeles Center
Mon 11:32:02 PM 33.6233 -115.9556 91° East 443 510 33,000 194 Climbing Los Angeles Center
Mon 11:33:04 PM 33.6211 -115.8111 91° East 435 501 33,000  Level Los Angeles Center
Mon 11:34:06 PM 33.6181 -115.6653 91° East 438 504 33,000  Level Los Angeles Center
Mon 11:35:08 PM 33.6144 -115.5186 92° East 440 506 33,000  Level Los Angeles Center
Mon 11:36:09 PM 33.6108 -115.3744 92° East 434 499 33,000  Level Los Angeles Center
Mon 11:37:11 PM 33.6067 -115.2272 92° East 447 514 33,000  Level Los Angeles Center
Mon 11:38:13 PM 33.6031 -115.0819 92° East 439 505 33,000  Level Los Angeles Center
Mon 11:39:15 PM 33.5994 -114.9075 91° East 439 505 33,000  Level Los Angeles Center
Mon 11:40:17 PM 33.5933 -114.7617 93° East 438 504 33,000  Level Los Angeles Center
Mon 11:41:18 PM 33.5656 -114.6197 103° East 444 511 33,000 -54 Level Los Angeles Center
Mon 11:42:08 PM 33.5489 -114.5106 100° East 439 505 32,900 -1,459 Descending Albuquerque Center
Mon 11:43:09 PM 33.5217 -114.3706 103° East 436 502 30,300 -2,459 Descending Albuquerque Center
Mon 11:44:10 PM 33.4919 -114.2275 104° East 441 507 27,900 -2,557 Descending Albuquerque Center
Mon 11:45:11 PM 33.4644 -114.0858 103° East 440 506 25,100 -1,426 Descending Albuquerque Center
Mon 11:46:12 PM 33.4433 -113.9439 100° East 434 499 25,000 -49 Descending Albuquerque Center
Mon 11:47:14 PM 33.4194 -113.7686 99° East 443 510 25,000  Level Albuquerque Center
Mon 11:48:15 PM 33.3983 -113.6208 100° East 448 516 25,000  Level Albuquerque Center
Mon 11:49:16 PM 33.3769 -113.4722 100° East 451 519 25,000 -49 Level Albuquerque Center
Mon 11:50:17 PM 33.3553 -113.3256 100° East 450 518 24,900 -1,475 Descending Albuquerque Center
Mon 11:51:18 PM 33.3344 -113.1803 100° East 445 512 22,000 -2,951 Descending Albuquerque Center
Mon 11:52:19 PM 33.3144 -113.0431 100° East 429 494 18,900 -2,607 Descending Albuquerque Center
Mon 11:53:20 PM 33.2936 -112.9119 101° East 410 472 16,700 -1,415 Descending Albuquerque Center
Mon 11:54:22 PM 33.2797 -112.7956 98° East 369 425 16,000 -341 Descending Albuquerque Center
Mon 11:55:23 PM 33.2836 -112.6681 88° East 377 434 16,000 -1,033 Level Albuquerque Center
Mon 11:56:24 PM 33.2878 -112.5286 88° East 383 441 13,900 -2,262 Descending Albuquerque Center
Mon 11:57:25 PM 33.2906 -112.4058 88° East 374 430 11,400 -1,721 Descending Albuquerque Center
Mon 11:58:26 PM 33.2964 -112.2894 87° East 356 410 10,400 -934 Descending Albuquerque Center
Mon 11:59:27 PM 33.3050 -112.1839 84° East 327 376 9,500 -787 Descending Albuquerque Center
Tue 12:00:28 AM 33.3119 -112.0900 85° East 288 331 8,800 -885 Descending Albuquerque Center
Tue 12:01:29 AM 33.3331 -112.0086 73° East 262 302 7,700 -1,131 Descending Albuquerque Center
Tue 12:02:30 AM 33.3472 -111.9278 78° East 252 290 6,500 -1,180 Descending Albuquerque Center
Tue 12:03:31 AM 33.3506 -111.8272 88° East 262 302 5,300 -885 Descending Albuquerque Center
Tue 12:04:32 AM 33.4050 -111.8094 15° North 209 241 4,700 -787 Descending Albuquerque Center
Tue 12:05:33 AM 33.4300 -111.8583 302° West 172 198 3,700 -1,131 Descending Albuquerque Center
Tue 12:06:34 AM 33.4289 -111.9128 269° West 163 188 2,400 -934 Descending Albuquerque Center
Tue 12:07:35 AM 33.4297 -111.9542 271° West 125 144 1,800 -590 Descending Albuquerque Center
Tue 12:08:36 AM 33.4286 -111.9956 268° West 116 133 1,200 -590 Descending Albuquerque Center

Login

Don't have an account? Register now (free) for customized features, flight alerts, and more!